Time;durP1;ratioP1;P1;durP2;ratioP2;P2;SDS_P1;SDS_P2;PMS_P1;PMS_P2;Temp;Humidity;BMP_temperature;BMP_pressure;BME280_temperature;BME280_humidity;BME280_pressure;Samples;Min_cycle;Max_cycle;Signal;HPM_P1;HPM_P2
2022/11/03 00:01:36;;;;;;;34.97;12.93;;;7.70;99.90;;;;;;5072669;28;20097;-50
2022/11/03 00:04:02;;;;;;;19.40;11.13;;;7.70;99.90;;;;;;5072433;28;20027;-52
2022/11/03 00:06:28;;;;;;;20.95;10.45;;;7.60;99.90;;;;;;5072535;28;20044;-50
2022/11/03 00:08:57;;;;;;;25.02;12.05;;;7.60;99.90;;;;;;5072155;28;20124;-50
2022/11/03 00:11:30;;;;;;;13.07;9.77;;;7.60;99.90;;;;;;5072418;28;20093;-50
2022/11/03 00:13:56;;;;;;;;;;;7.50;99.90;;;;;;5073024;28;20469;-51
2022/11/03 00:16:22;;;;;;;14.57;9.27;;;7.40;99.90;;;;;;5072366;28;19999;-50
2022/11/03 00:18:48;;;;;;;17.25;11.07;;;7.30;99.90;;;;;;5072238;28;20029;-51
2022/11/03 00:21:13;;;;;;;17.88;10.05;;;7.30;99.90;;;;;;5072099;28;20364;-50
2022/11/03 00:23:41;;;;;;;28.67;11.82;;;7.20;99.90;;;;;;5070884;28;20522;-50
2022/11/03 00:26:07;;;;;;;21.13;10.75;;;7.20;99.90;;;;;;5072245;28;20042;-49
2022/11/03 00:28:34;;;;;;;19.17;10.63;;;7.10;99.90;;;;;;5072035;28;20021;-50
2022/11/03 00:31:01;;;;;;;19.60;11.38;;;7.10;99.90;;;;;;5072183;28;20063;-50
2022/11/03 00:33:31;;;;;;;19.80;11.90;;;7.10;99.90;;;;;;5072093;28;20021;-50
2022/11/03 00:36:00;;;;;;;27.73;11.35;;;7.10;99.90;;;;;;5072225;28;20039;-49
2022/11/03 00:38:26;;;;;;;28.92;12.82;;;7.20;99.90;;;;;;5071695;28;20090;-50
2022/11/03 00:40:54;;;;;;;24.50;12.48;;;7.20;99.90;;;;;;5072023;28;20379;-52
2022/11/03 00:43:21;;;;;;;23.58;13.93;;;7.30;99.90;;;;;;5071318;28;20081;-51
2022/11/03 00:45:47;;;;;;;24.60;13.90;;;7.40;99.90;;;;;;5071545;28;20029;-50
2022/11/03 00:48:29;;;;;;;23.42;13.32;;;7.50;99.90;;;;;;5072020;28;20027;-52
2022/11/03 00:51:11;;;;;;;23.27;13.40;;;7.60;99.90;;;;;;5071907;28;20108;-50
2022/11/03 00:53:45;;;;;;;29.85;14.55;;;7.50;99.90;;;;;;5071628;28;20380;-51
2022/11/03 00:56:12;;;;;;;;;;;7.50;99.90;;;;;;5072294;28;20047;-50
2022/11/03 00:58:39;;;;;;;24.48;13.07;;;7.50;99.90;;;;;;5071521;28;20275;-51
2022/11/03 01:01:10;;;;;;;27.75;13.95;;;7.60;99.90;;;;;;5071777;28;20025;-49
2022/11/03 01:03:38;;;;;;;20.58;13.20;;;7.50;99.90;;;;;;5071676;28;20452;-51
2022/11/03 01:08:53;;;;;;;23.55;15.18;;;7.50;99.90;;;;;;5071553;28;20132;-50
2022/11/03 01:14:12;;;;;;;32.28;15.32;;;7.50;99.90;;;;;;5071746;28;20074;-51
2022/11/03 01:16:37;;;;;;;31.02;15.32;;;7.50;99.90;;;;;;5071541;28;20028;-50
2022/11/03 01:19:04;;;;;;;27.75;16.52;;;7.50;99.90;;;;;;5071018;28;20029;-50
2022/11/03 01:21:30;;;;;;;26.90;16.33;;;7.60;99.90;;;;;;5071111;28;20025;-51
2022/11/03 01:23:55;;;;;;;32.15;15.95;;;7.60;99.90;;;;;;5071462;28;20090;-49
2022/11/03 01:26:21;;;;;;;29.52;15.32;;;7.70;99.90;;;;;;5071103;28;20033;-51
2022/11/03 01:28:47;;;;;;;25.27;15.30;;;7.70;99.90;;;;;;5071465;28;20445;-52
2022/11/03 01:31:18;;;;;;;22.23;14.95;;;7.70;99.90;;;;;;5071659;28;20364;-49
2022/11/03 01:33:45;;;;;;;33.55;15.38;;;7.70;99.90;;;;;;5071389;28;20017;-51
2022/11/03 01:36:12;;;;;;;23.58;15.82;;;7.70;99.90;;;;;;5071450;28;20051;-50
2022/11/03 01:38:38;;;;;;;30.15;17.45;;;7.60;99.90;;;;;;5071053;28;20452;-49
2022/11/03 01:41:07;;;;;;;36.45;17.83;;;7.70;99.90;;;;;;5071325;28;20029;-49
2022/11/03 01:43:33;;;;;;;29.40;16.30;;;7.60;99.90;;;;;;5071126;28;20384;-51
2022/11/03 01:45:59;;;;;;;35.55;17.58;;;7.70;99.90;;;;;;5071099;28;20029;-50
2022/11/03 01:48:24;;;;;;;29.58;17.98;;;7.60;99.90;;;;;;5070974;28;20032;-49
2022/11/03 01:50:51;;;;;;;28.88;18.55;;;7.60;99.90;;;;;;5071366;28;20016;-50
2022/11/03 01:53:18;;;;;;;33.33;17.40;;;7.60;99.90;;;;;;5070362;28;20035;-50
2022/11/03 01:55:45;;;;;;;33.97;17.92;;;7.60;99.90;;;;;;5071861;28;20116;-50
2022/11/03 01:58:22;;;;;;;33.60;18.00;;;7.60;99.90;;;;;;5074174;28;20036;-50
2022/11/03 02:00:52;;;;;;;31.10;16.65;;;7.60;99.90;;;;;;5074812;28;20042;-50
2022/11/03 02:03:20;;;;;;;27.77;17.05;;;7.50;99.90;;;;;;5073855;28;20029;-52
2022/11/03 02:05:48;;;;;;;35.83;16.73;;;7.50;99.90;;;;;;5073814;28;20019;-50
2022/11/03 02:08:30;;;;;;;24.55;17.10;;;7.50;99.90;;;;;;5074521;28;20155;-50
2022/11/03 02:10:57;;;;;;;28.02;16.98;;;7.50;99.90;;;;;;5074243;28;20103;-51
2022/11/03 02:13:27;;;;;;;31.73;15.02;;;7.50;99.90;;;;;;5074646;28;20497;-50
2022/11/03 02:15:57;;;;;;;29.13;15.88;;;7.50;99.90;;;;;;5074715;28;20035;-49
2022/11/03 02:18:27;;;;;;;42.58;17.15;;;7.50;99.90;;;;;;5074559;28;20044;-49
2022/11/03 02:21:10;;;;;;;32.58;17.70;;;7.50;99.90;;;;;;5074537;28;20375;-50
2022/11/03 02:23:47;;;;;;;29.67;17.65;;;7.50;99.90;;;;;;5074099;28;20028;-49
2022/11/03 02:26:14;;;;;;;34.67;17.65;;;7.50;99.90;;;;;;5074335;28;20094;-50
2022/11/03 02:28:40;;;;;;;28.98;17.45;;;7.50;99.90;;;;;;5074406;28;20557;-50
2022/11/03 02:31:16;;;;;;;36.17;17.58;;;7.50;99.90;;;;;;5074503;28;20035;-50
2022/11/03 02:34:00;;;;;;;31.38;17.23;;;7.40;99.90;;;;;;5074491;28;20020;-49
2022/11/03 02:36:35;;;;;;;30.58;17.38;;;7.50;99.90;;;;;;5074238;28;20040;-50
2022/11/03 02:39:09;;;;;;;25.25;16.75;;;7.50;99.90;;;;;;5073958;28;20024;-52
2022/11/03 02:41:37;;;;;;;30.60;16.25;;;7.40;99.90;;;;;;5074008;28;20056;-49
2022/11/03 02:44:14;;;;;;;26.05;14.95;;;7.40;99.90;;;;;;5074148;28;20028;-50
2022/11/03 02:46:42;;;;;;;27.27;13.82;;;7.40;99.90;;;;;;5074388;28;20024;-49
2022/11/03 02:49:08;;;;;;;26.58;15.35;;;7.50;99.90;;;;;;5074306;28;20017;-49
2022/11/03 02:51:33;;;;;;;22.13;15.02;;;7.50;99.90;;;;;;5074080;28;20032;-50
2022/11/03 02:54:05;;;;;;;22.77;13.50;;;7.50;99.90;;;;;;5073739;28;20108;-49
2022/11/03 02:56:36;;;;;;;24.10;14.25;;;7.50;99.90;;;;;;5073936;28;20039;-49
2022/11/03 02:59:06;;;;;;;20.90;12.60;;;7.50;99.90;;;;;;5072563;28;20111;-50
2022/11/03 03:01:35;;;;;;;19.65;13.77;;;7.50;99.90;;;;;;5073892;28;20086;-49
2022/11/03 03:04:08;;;;;;;21.40;14.38;;;7.50;99.90;;;;;;5073923;28;20025;-50
2022/11/03 03:06:44;;;;;;;29.20;14.10;;;7.50;99.90;;;;;;5073079;28;20434;-50
2022/11/03 03:09:17;;;;;;;20.60;14.05;;;7.50;99.90;;;;;;5073308;28;20075;-50
2022/11/03 03:11:45;;;;;;;24.08;13.60;;;7.50;99.90;;;;;;5073770;28;20021;-50
2022/11/03 03:14:21;;;;;;;25.77;14.07;;;7.50;99.90;;;;;;5073741;28;20028;-51
2022/11/03 03:16:57;;;;;;;21.10;12.82;;;7.50;99.90;;;;;;5073654;28;20016;-51
2022/11/03 03:19:42;;;;;;;32.50;14.90;;;7.50;99.90;;;;;;5073528;28;20372;-50
2022/11/03 03:22:25;;;;;;;16.42;10.98;;;7.50;99.90;;;;;;5073553;28;20086;-49
2022/11/03 03:25:01;;;;;;;22.50;12.35;;;7.50;99.90;;;;;;5053467;28;20438;-51
2022/11/03 03:27:29;;;;;;;20.45;11.48;;;7.50;99.90;;;;;;5068744;28;20056;-51
2022/11/03 03:30:05;;;;;;;18.85;11.70;;;7.50;99.90;;;;;;5053384;28;20052;-51
2022/11/03 03:32:35;;;;;;;19.38;13.00;;;7.40;99.90;;;;;;5053231;28;20025;-51
2022/11/03 03:35:02;;;;;;;21.17;12.02;;;7.40;99.90;;;;;;5053471;28;20017;-49
2022/11/03 03:37:29;;;;;;;19.50;11.95;;;7.40;99.90;;;;;;5071313;28;20130;-51
2022/11/03 03:40:00;;;;;;;24.83;13.43;;;7.40;99.90;;;;;;5073208;28;20024;-50
2022/11/03 03:42:28;;;;;;;21.33;13.02;;;7.40;99.90;;;;;;5073051;28;20046;-52
2022/11/03 03:44:55;;;;;;;23.05;12.95;;;7.40;99.90;;;;;;5073005;28;20117;-51
2022/11/03 03:47:28;;;;;;;23.67;14.18;;;7.40;99.90;;;;;;5072950;28;20029;-50
2022/11/03 03:49:54;;;;;;;21.67;13.20;;;7.40;99.90;;;;;;5072775;28;20027;-50
2022/11/03 03:52:20;;;;;;;27.00;13.02;;;7.40;99.90;;;;;;5072791;28;20434;-50
2022/11/03 03:54:46;;;;;;;27.38;14.00;;;7.40;99.90;;;;;;5073089;28;20032;-50
2022/11/03 03:57:15;;;;;;;29.02;13.75;;;7.40;99.90;;;;;;5072919;28;20036;-50
2022/11/03 03:59:42;;;;;;;29.27;13.73;;;7.50;99.90;;;;;;5072632;28;20024;-50
2022/11/03 04:02:08;;;;;;;24.88;13.68;;;7.60;99.90;;;;;;5072839;28;20020;-53
2022/11/03 04:04:33;;;;;;;25.08;13.43;;;7.60;99.90;;;;;;5072314;28;20538;-49
2022/11/03 04:09:43;;;;;;;24.33;14.80;;;7.70;99.90;;;;;;5072340;28;20559;-52
2022/11/03 04:23:09;;;;;;;25.52;13.45;;;7.80;99.90;;;;;;5072566;28;20074;-50
2022/11/03 04:25:34;;;;;;;20.65;14.05;;;7.80;99.90;;;;;;5070795;28;20063;-51
2022/11/03 04:28:06;;;;;;;19.30;13.02;;;7.80;99.90;;;;;;5072327;28;20103;-50
2022/11/03 04:30:32;;;;;;;17.60;12.18;;;7.80;99.90;;;;;;5072089;28;20395;-55
2022/11/03 04:32:58;;;;;;;35.30;12.48;;;7.80;99.90;;;;;;5070934;28;20053;-51
2022/11/03 04:35:26;;;;;;;17.55;11.60;;;7.80;99.90;;;;;;5071738;28;20104;-51
2022/11/03 04:38:02;;;;;;;25.55;10.85;;;7.80;99.90;;;;;;5072151;28;20021;-52
2022/11/03 04:40:27;;;;;;;17.30;11.82;;;7.80;99.90;;;;;;5071871;28;20031;-53
2022/11/03 04:42:54;;;;;;;15.23;9.60;;;7.90;99.90;;;;;;5072395;28;20028;-50
2022/11/03 04:45:37;;;;;;;21.95;12.18;;;7.90;99.90;;;;;;5071673;28;20032;-51
2022/11/03 04:48:11;;;;;;;13.85;10.43;;;7.90;99.90;;;;;;5071713;28;20021;-51
2022/11/03 04:50:37;;;;;;;12.52;9.32;;;7.90;99.90;;;;;;5071826;28;20082;-54
2022/11/03 04:53:11;;;;;;;20.85;9.05;;;7.90;99.90;;;;;;5070527;28;20028;-51
2022/11/03 04:55:43;;;;;;;13.32;9.45;;;7.80;99.90;;;;;;5071671;28;20033;-50
2022/11/03 04:58:31;;;;;;;17.05;10.20;;;7.80;99.90;;;;;;5071829;28;20364;-49
2022/11/03 05:00:59;;;;;;;17.20;9.80;;;7.80;99.90;;;;;;5071973;28;20064;-52
2022/11/03 05:03:34;;;;;;;25.20;9.80;;;7.80;99.90;;;;;;5071305;28;20325;-51
2022/11/03 05:06:10;;;;;;;21.05;9.27;;;7.80;99.90;;;;;;5070192;28;20039;-54
2022/11/03 05:08:36;;;;;;;12.55;8.18;;;7.80;99.90;;;;;;5071341;28;20040;-51
2022/11/03 05:11:16;;;;;;;15.20;8.98;;;7.80;99.90;;;;;;5071731;28;20077;-51
2022/11/03 05:13:41;;;;;;;11.85;8.68;;;7.80;99.90;;;;;;5071457;28;20535;-52
2022/11/03 05:16:08;;;;;;;26.30;8.70;;;7.80;99.90;;;;;;5071562;28;20108;-52
2022/11/03 05:18:36;;;;;;;24.00;8.93;;;7.80;99.90;;;;;;5071131;28;20029;-52
2022/11/03 05:21:05;;;;;;;16.08;8.60;;;7.70;99.90;;;;;;5070252;28;20036;-52
2022/11/03 05:23:38;;;;;;;21.08;9.48;;;7.70;99.90;;;;;;5071362;28;20077;-51
2022/11/03 05:26:04;;;;;;;;;;;7.70;99.90;;;;;;5071942;28;20792;-52
2022/11/03 05:28:34;;;;;;;19.30;8.20;;;7.70;99.90;;;;;;5071398;28;19905;-50
2022/11/03 05:31:01;;;;;;;19.17;9.27;;;7.70;99.90;;;;;;5075787;28;20327;-53
2022/11/03 05:33:33;;;;;;;23.40;8.85;;;7.70;99.90;;;;;;5076421;28;20098;-52
2022/11/03 05:36:15;;;;;;;15.75;8.52;;;7.70;99.90;;;;;;5078155;28;20029;-50
2022/11/03 05:38:41;;;;;;;15.55;8.07;;;7.70;99.90;;;;;;5077858;28;20020;-52
2022/11/03 05:41:25;;;;;;;14.98;8.63;;;7.70;99.90;;;;;;5077997;28;20028;-52
2022/11/03 05:44:23;;;;;;;13.88;7.80;;;7.70;99.90;;;;;;5078053;28;20033;-52
2022/11/03 05:46:49;;;;;;;18.95;7.95;;;7.70;99.90;;;;;;5071232;28;20094;-51
2022/11/03 05:49:15;;;;;;;15.02;8.38;;;7.70;99.90;;;;;;5077766;28;20066;-52
2022/11/03 05:51:43;;;;;;;26.35;9.32;;;7.70;99.90;;;;;;5077914;28;20021;-50
2022/11/03 05:54:22;;;;;;;16.50;9.02;;;7.70;99.90;;;;;;5076554;28;20028;-51
2022/11/03 05:56:48;;;;;;;19.25;7.32;;;7.60;99.90;;;;;;5076585;28;20115;-51
2022/11/03 05:59:18;;;;;;;20.08;8.43;;;7.70;99.90;;;;;;5077908;28;20060;-49
2022/11/03 06:01:44;;;;;;;19.92;8.23;;;7.60;99.90;;;;;;5077569;28;20070;-50
2022/11/03 06:04:36;;;;;;;17.17;8.23;;;7.60;99.90;;;;;;5077399;28;20028;-51
2022/11/03 06:07:18;;;;;;;13.95;7.60;;;7.60;99.90;;;;;;5077676;28;20455;-50
2022/11/03 06:09:44;;;;;;;14.13;7.95;;;7.60;99.90;;;;;;5077452;28;20044;-50
2022/11/03 06:12:16;;;;;;;15.40;7.50;;;7.60;99.90;;;;;;5077382;28;20021;-50
2022/11/03 06:14:41;;;;;;;11.65;7.88;;;7.60;99.90;;;;;;5077556;28;20096;-51
2022/11/03 06:17:22;;;;;;;19.23;8.55;;;7.60;99.90;;;;;;5077448;28;20059;-50
2022/11/03 06:19:50;;;;;;;15.45;7.68;;;7.60;99.90;;;;;;5077441;28;20029;-50
2022/11/03 06:22:24;;;;;;;12.60;7.90;;;7.60;99.90;;;;;;5077440;28;20017;-52
2022/11/03 06:24:53;;;;;;;17.35;7.07;;;7.60;99.90;;;;;;5076177;28;20024;-50
2022/11/03 06:27:22;;;;;;;16.27;7.45;;;7.60;99.90;;;;;;5077377;28;20016;-50
2022/11/03 06:30:02;;;;;;;20.35;9.15;;;7.60;99.90;;;;;;5077406;28;20021;-53
2022/11/03 06:32:28;;;;;;;13.10;9.02;;;7.60;99.90;;;;;;5077415;28;20071;-51
2022/11/03 06:34:57;;;;;;;22.23;7.82;;;7.60;99.90;;;;;;5077261;28;20472;-51
2022/11/03 06:37:31;;;;;;;15.65;6.97;;;7.60;99.90;;;;;;5076658;28;20024;-51
2022/11/03 06:40:10;;;;;;;17.63;7.65;;;7.70;99.90;;;;;;5077028;28;20051;-52
2022/11/03 06:42:40;;;;;;;11.90;7.25;;;7.70;99.90;;;;;;5077027;28;20591;-52
2022/11/03 06:45:32;;;;;;;17.50;7.00;;;7.80;99.90;;;;;;5073765;28;20581;-53
2022/11/03 06:47:58;;;;;;;18.80;7.43;;;7.90;99.90;;;;;;5072589;28;20041;-51
2022/11/03 06:50:31;;;;;;;12.55;6.60;;;8.00;99.90;;;;;;5073569;28;20078;-51
2022/11/03 06:53:02;;;;;;;12.85;7.22;;;8.00;99.90;;;;;;5073681;28;20070;-52
2022/11/03 06:55:29;;;;;;;20.20;6.60;;;8.10;99.90;;;;;;5072128;28;20032;-50
2022/11/03 06:58:03;;;;;;;16.92;7.28;;;8.10;99.90;;;;;;5073328;28;20107;-52
2022/11/03 07:00:30;;;;;;;11.10;7.20;;;8.10;99.90;;;;;;5073723;28;20036;-50
2022/11/03 07:03:13;;;;;;;15.98;8.55;;;8.20;99.90;;;;;;5073840;28;20046;-51
2022/11/03 07:05:40;;;;;;;15.63;8.10;;;8.20;99.90;;;;;;5073614;28;20021;-52
2022/11/03 07:08:16;;;;;;;15.80;9.52;;;8.20;99.90;;;;;;5073667;28;20060;-50
2022/11/03 07:10:41;;;;;;;26.42;10.77;;;8.20;99.90;;;;;;5073782;28;20033;-50
2022/11/03 07:13:14;;;;;;;21.20;10.40;;;8.30;99.90;;;;;;5072440;28;20039;-51
2022/11/03 07:15:42;;;;;;;21.65;11.55;;;8.30;99.90;;;;;;5072664;28;20032;-50
2022/11/03 07:18:29;;;;;;;23.38;10.63;;;8.40;99.90;;;;;;5072988;28;20032;-51
2022/11/03 07:20:56;;;;;;;16.77;10.25;;;8.30;99.90;;;;;;5072760;28;20110;-52
2022/11/03 07:23:25;;;;;;;22.60;10.27;;;8.40;99.90;;;;;;5072817;28;20107;-55
2022/11/03 07:25:53;;;;;;;14.75;9.18;;;8.40;99.90;;;;;;5071008;28;20031;-55
2022/11/03 07:28:33;;;;;;;14.50;8.85;;;8.50;99.90;;;;;;5072237;28;20028;-50
2022/11/03 07:31:01;;;;;;;17.80;9.63;;;8.50;99.90;;;;;;5072611;28;20016;-50
2022/11/03 07:33:29;;;;;;;14.88;9.52;;;8.60;99.90;;;;;;5072713;28;20487;-51
2022/11/03 07:35:59;;;;;;;18.65;9.80;;;8.60;99.90;;;;;;5073158;28;20468;-51
2022/11/03 07:38:26;;;;;;;19.20;8.85;;;8.70;99.90;;;;;;5072779;28;20044;-54
2022/11/03 07:40:55;;;;;;;16.02;8.23;;;8.80;99.90;;;;;;5072961;28;20056;-50
2022/11/03 07:43:32;;;;;;;15.55;9.38;;;8.90;99.90;;;;;;5072867;28;20032;-51
2022/11/03 07:46:00;;;;;;;16.70;9.32;;;8.80;99.90;;;;;;5073125;28;20037;-51
2022/11/03 07:48:39;;;;;;;21.98;10.43;;;8.70;99.90;;;;;;5071556;28;20047;-52
2022/11/03 07:51:14;;;;;;;22.92;8.98;;;8.80;99.90;;;;;;5072827;28;20029;-51
2022/11/03 07:53:44;;;;;;;15.55;9.98;;;8.90;99.90;;;;;;5072268;28;20024;-50
2022/11/03 07:56:37;;;;;;;15.85;9.75;;;8.90;99.90;;;;;;5073227;28;20495;-49
2022/11/03 07:59:03;;;;;;;15.07;8.93;;;8.90;99.90;;;;;;5075543;28;20078;-50
2022/11/03 08:01:35;;;;;;;20.35;10.80;;;8.90;99.90;;;;;;5072542;28;20452;-52
2022/11/03 08:04:05;;;;;;;16.43;10.03;;;8.90;99.90;;;;;;5072604;28;20020;-51
2022/11/03 08:06:31;;;;;;;14.27;8.48;;;8.90;99.90;;;;;;5072584;28;20020;-52
2022/11/03 08:08:57;;;;;;;10.63;8.00;;;8.90;99.90;;;;;;5072597;28;20467;-52
2022/11/03 08:11:23;;;;;;;25.05;20.20;;;9.00;99.90;;;;;;5072311;28;20559;-52
2022/11/03 08:13:52;;;;;;;15.52;8.95;;;9.10;99.90;;;;;;5072336;28;20107;-51
2022/11/03 08:16:18;;;;;;;25.02;10.15;;;9.10;99.90;;;;;;5072046;28;20060;-53
2022/11/03 08:18:45;;;;;;;21.85;14.27;;;9.20;99.90;;;;;;5072375;28;20024;-53
2022/11/03 08:21:11;;;;;;;16.83;9.32;;;9.40;99.90;;;;;;5072122;28;20025;-49
2022/11/03 08:23:37;;;;;;;19.20;8.93;;;9.30;99.90;;;;;;5072136;28;20364;-53
2022/11/03 08:26:02;;;;;;;18.90;10.23;;;9.30;99.90;;;;;;5072099;28;20081;-53
2022/11/03 08:28:29;;;;;;;15.80;9.93;;;9.30;99.90;;;;;;5072035;28;20024;-50
2022/11/03 08:31:00;;;;;;;20.08;11.30;;;9.30;99.90;;;;;;5071989;28;20021;-51
2022/11/03 08:33:28;;;;;;;24.52;10.32;;;9.40;99.90;;;;;;5072003;28;20390;-51
2022/11/03 08:35:54;;;;;;;27.15;10.88;;;9.60;99.90;;;;;;5072077;28;20115;-53
2022/11/03 08:38:19;;;;;;;19.52;10.27;;;9.60;99.90;;;;;;5071811;28;20103;-51
2022/11/03 08:40:45;;;;;;;18.52;11.18;;;9.40;99.90;;;;;;5071925;28;20047;-51
2022/11/03 08:43:11;;;;;;;21.70;11.88;;;9.50;99.90;;;;;;5071829;28;20029;-53
2022/11/03 08:45:36;;;;;;;21.55;10.65;;;9.60;99.90;;;;;;5071445;28;20090;-51
2022/11/03 08:48:02;;;;;;;20.40;10.43;;;9.60;99.90;;;;;;5071725;28;20029;-54
2022/11/03 08:50:29;;;;;;;17.05;11.02;;;9.70;99.90;;;;;;5071619;28;20021;-51
2022/11/03 08:52:54;;;;;;;14.93;10.52;;;10.00;99.90;;;;;;5071674;28;20356;-55
2022/11/03 08:55:20;;;;;;;19.85;10.98;;;10.00;99.90;;;;;;5073128;28;20029;-51
2022/11/03 08:57:46;;;;;;;28.85;12.15;;;10.00;99.90;;;;;;5071813;28;20163;-52
2022/11/03 09:00:12;;;;;;;19.60;10.68;;;10.30;99.90;;;;;;5071512;28;20090;-49
2022/11/03 09:02:38;;;;;;;19.13;10.10;;;10.40;99.90;;;;;;5071560;28;20099;-50
2022/11/03 09:05:04;;;;;;;17.00;11.27;;;10.50;99.90;;;;;;5070972;28;20029;-50
2022/11/03 09:07:30;;;;;;;20.30;10.93;;;10.40;99.90;;;;;;5071062;28;20020;-50
2022/11/03 09:09:56;;;;;;;29.35;11.65;;;10.60;99.90;;;;;;5070588;28;20059;-51
2022/11/03 09:12:22;;;;;;;19.67;10.20;;;10.80;99.90;;;;;;5070732;28;20024;-49
2022/11/03 09:14:48;;;;;;;15.60;9.75;;;10.80;99.90;;;;;;5070958;28;20426;-49
2022/11/03 09:17:13;;;;;;;17.92;10.38;;;10.80;99.90;;;;;;5070728;28;20020;-51
2022/11/03 09:19:39;;;;;;;15.57;9.85;;;11.00;99.90;;;;;;5070486;28;20029;-50
2022/11/03 09:22:04;;;;;;;18.27;11.00;;;11.00;99.90;;;;;;5070460;28;20024;-52
2022/11/03 09:24:30;;;;;;;14.30;11.25;;;11.20;99.90;;;;;;5070183;28;20608;-51
2022/11/03 09:26:56;;;;;;;13.32;9.00;;;11.30;99.90;;;;;;5070981;28;20021;-50
2022/11/03 09:29:21;;;;;;;23.15;11.63;;;11.20;99.90;;;;;;5069355;28;20029;-50
2022/11/03 09:31:47;;;;;;;14.88;9.02;;;11.20;99.90;;;;;;5071379;28;20054;-52
2022/11/03 09:34:13;;;;;;;18.77;9.45;;;11.30;99.90;;;;;;5071405;28;20051;-54
2022/11/03 09:36:39;;;;;;;16.55;11.23;;;11.50;99.90;;;;;;5071566;28;20061;-53
2022/11/03 09:39:04;;;;;;;19.42;10.18;;;11.50;99.90;;;;;;5071303;28;20047;-50
2022/11/03 09:41:31;;;;;;;17.90;9.48;;;11.40;99.90;;;;;;5071178;28;20105;-52
2022/11/03 09:43:59;;;;;;;23.00;10.13;;;11.70;99.90;;;;;;5071364;28;20055;-52
2022/11/03 09:46:27;;;;;;;17.52;9.88;;;12.60;99.90;;;;;;5071124;28;20111;-51
2022/11/03 09:48:54;;;;;;;14.75;7.68;;;13.20;99.90;;;;;;5071176;28;20050;-52
2022/11/03 09:51:21;;;;;;;14.05;8.32;;;13.60;99.90;;;;;;5070464;28;20020;-50
2022/11/03 09:53:47;;;;;;;16.92;8.45;;;14.10;99.90;;;;;;5069865;28;20115;-50
2022/11/03 09:56:15;;;;;;;22.55;8.15;;;14.90;99.90;;;;;;5069898;28;20099;-50
2022/11/03 09:58:41;;;;;;;12.40;6.57;;;16.20;99.90;;;;;;5070200;28;20052;-50
2022/11/03 10:01:09;;;;;;;14.73;6.97;;;16.80;99.60;;;;;;5070199;28;20056;-50
2022/11/03 10:03:35;;;;;;;13.23;7.55;;;16.90;98.10;;;;;;5069667;28;20028;-50
2022/11/03 10:06:01;;;;;;;14.32;7.05;;;17.00;97.50;;;;;;5068563;28;20081;-50
2022/11/03 10:08:29;;;;;;;14.77;6.18;;;17.20;97.70;;;;;;5069708;28;20048;-49
2022/11/03 10:10:56;;;;;;;17.88;7.32;;;17.30;96.50;;;;;;5070870;28;20032;-51
2022/11/03 10:13:29;;;;;;;11.77;5.10;;;18.20;95.70;;;;;;5070546;28;20499;-51
2022/11/03 10:15:56;;;;;;;12.30;5.93;;;19.60;93.70;;;;;;5071405;28;20035;-52
2022/11/03 10:18:23;;;;;;;10.75;5.82;;;20.60;92.20;;;;;;5074577;28;20483;-51
2022/11/03 10:20:48;;;;;;;9.77;5.35;;;20.60;90.00;;;;;;5074740;28;20035;-51
2022/11/03 10:23:14;;;;;;;14.68;5.78;;;21.80;86.00;;;;;;5074666;28;20468;-54
2022/11/03 10:25:41;;;;;;;13.70;5.60;;;21.30;83.50;;;;;;5074515;28;20146;-52
2022/11/03 10:28:21;;;;;;;13.05;6.85;;;21.10;83.80;;;;;;5074582;28;20422;-51
2022/11/03 10:30:58;;;;;;;9.43;6.13;;;21.80;81.40;;;;;;5074513;28;20060;-55
2022/11/03 10:33:32;;;;;;;13.52;6.53;;;21.90;80.50;;;;;;5074385;28;20029;-55
2022/11/03 10:36:08;;;;;;;15.20;7.03;;;21.40;78.90;;;;;;5074279;28;20345;-54
2022/11/03 10:38:56;;;;;;;13.80;7.22;;;20.50;80.10;;;;;;5073473;28;20510;-51
2022/11/03 10:41:23;;;;;;;12.65;7.85;;;19.60;84.00;;;;;;5073281;28;20028;-54
2022/11/03 10:43:59;;;;;;;11.82;7.50;;;19.10;85.80;;;;;;5073551;28;20086;-52
2022/11/03 10:46:25;;;;;;;14.50;7.40;;;18.40;84.80;;;;;;5073877;28;20048;-53
2022/11/03 10:49:04;;;;;;;11.93;8.00;;;18.60;86.00;;;;;;5073313;28;20059;-51
2022/11/03 10:51:34;;;;;;;15.07;8.60;;;19.00;86.40;;;;;;5072844;28;20058;-55
2022/11/03 10:54:01;;;;;;;18.52;8.23;;;19.40;84.90;;;;;;5073088;28;20024;-51
2022/11/03 10:56:27;;;;;;;14.65;6.22;;;20.40;82.20;;;;;;5072990;28;20032;-52
2022/11/03 10:58:53;;;;;;;16.83;6.53;;;20.70;81.50;;;;;;5073217;28;20021;-51
2022/11/03 11:01:19;;;;;;;15.32;6.30;;;20.30;80.10;;;;;;5073421;28;20021;-54
2022/11/03 11:03:45;;;;;;;10.85;5.55;;;20.70;79.90;;;;;;5073750;28;20429;-53
2022/11/03 11:06:39;;;;;;;12.38;5.18;;;21.30;80.60;;;;;;5073309;28;20036;-52
2022/11/03 11:09:08;;;;;;;15.95;5.15;;;21.90;78.40;;;;;;5072134;28;20051;-52
2022/11/03 11:11:34;;;;;;;15.57;4.78;;;22.40;75.50;;;;;;5072287;28;20032;-54
2022/11/03 11:14:24;;;;;;;12.02;5.20;;;22.50;75.10;;;;;;5073348;28;20051;-56
2022/11/03 11:17:00;;;;;;;9.82;5.03;;;22.00;75.00;;;;;;5059396;28;20135;-54
2022/11/03 11:19:27;;;;;;;6.93;4.65;;;21.90;75.60;;;;;;5073240;28;20490;-53
2022/11/03 11:21:53;;;;;;;9.18;4.68;;;21.90;75.20;;;;;;5071743;28;20028;-56
2022/11/03 11:24:43;;;;;;;10.05;4.78;;;22.20;74.10;;;;;;5073133;28;20033;-56
2022/11/03 11:27:30;;;;;;;9.55;4.85;;;22.70;74.80;;;;;;5073043;28;20025;-53
2022/11/03 11:30:00;;;;;;;12.73;5.30;;;22.50;73.10;;;;;;5073168;28;20062;-51
2022/11/03 11:32:38;;;;;;;8.50;4.90;;;22.70;73.00;;;;;;5072994;28;20025;-54
2022/11/03 11:35:16;;;;;;;10.10;4.75;;;23.60;71.90;;;;;;5073017;28;20086;-52
2022/11/03 11:37:42;;;;;;;8.15;5.10;;;22.40;72.00;;;;;;5072848;28;20085;-52
2022/11/03 11:40:23;;;;;;;13.60;6.05;;;22.40;73.70;;;;;;5072786;28;20093;-51
2022/11/03 11:43:09;;;;;;;7.60;5.05;;;22.40;72.80;;;;;;5073191;28;20103;-53
2022/11/03 11:46:13;;;;;;;15.45;5.20;;;22.90;72.40;;;;;;5072279;28;20786;-54
2022/11/03 11:48:38;;;;;;;8.77;5.50;;;23.30;71.50;;;;;;5072934;28;20033;-53
2022/11/03 11:51:11;;;;;;;8.48;5.22;;;24.10;69.60;;;;;;5071830;28;20507;-51
2022/11/03 11:53:39;;;;;;;12.70;5.25;;;23.20;68.60;;;;;;5072596;28;20440;-52
2022/11/03 11:56:07;;;;;;;12.70;5.38;;;23.60;69.20;;;;;;5072554;28;20036;-55
2022/11/03 11:58:41;;;;;;;9.93;4.95;;;23.70;69.80;;;;;;5072268;28;20111;-53
2022/11/03 12:01:33;;;;;;;8.45;5.30;;;24.20;68.30;;;;;;5072533;28;20036;-53
2022/11/03 12:04:13;;;;;;;14.85;5.70;;;24.10;66.50;;;;;;5072432;28;20032;-54
2022/11/03 12:06:40;;;;;;;8.88;5.53;;;24.10;66.60;;;;;;5072137;28;20052;-55
2022/11/03 12:09:07;;;;;;;10.18;5.43;;;23.80;67.30;;;;;;5072158;28;20420;-54
2022/11/03 12:11:55;;;;;;;10.52;5.00;;;24.10;66.30;;;;;;5072288;28;20030;-54
2022/11/03 12:14:32;;;;;;;8.13;4.80;;;23.90;66.70;;;;;;5064763;28;20123;-54
2022/11/03 12:17:18;;;;;;;8.60;5.60;;;24.10;66.50;;;;;;5072330;28;20483;-52
2022/11/03 12:19:48;;;;;;;14.30;5.82;;;23.00;67.60;;;;;;5072178;28;20111;-52
2022/11/03 12:22:36;;;;;;;9.98;5.90;;;22.60;68.60;;;;;;5071984;28;20138;-52
2022/11/03 12:25:05;;;;;;;13.50;6.22;;;22.20;70.00;;;;;;5059965;28;20025;-54
2022/11/03 12:27:32;;;;;;;14.38;6.32;;;22.00;70.00;;;;;;5058001;28;20431;-54
2022/11/03 12:30:05;;;;;;;14.02;5.20;;;22.00;69.40;;;;;;5030960;28;20464;-54
2022/11/03 12:32:31;;;;;;;8.40;4.97;;;22.40;70.30;;;;;;5031348;28;20116;-52
2022/11/03 12:34:57;;;;;;;7.72;5.25;;;22.00;69.60;;;;;;5030287;28;20041;-54
2022/11/03 12:37:23;;;;;;;10.10;5.80;;;22.00;70.20;;;;;;5032308;28;20044;-54
2022/11/03 12:39:48;;;;;;;10.65;5.68;;;22.10;69.60;;;;;;5024422;28;20044;-52
2022/11/03 12:42:14;;;;;;;7.95;4.85;;;22.40;71.20;;;;;;5027822;28;20040;-53
2022/11/03 12:44:40;;;;;;;18.02;6.10;;;22.80;69.30;;;;;;5035887;28;20368;-54
2022/11/03 12:47:05;;;;;;;11.00;4.93;;;22.80;69.80;;;;;;5026639;28;20033;-53
2022/11/03 12:49:31;;;;;;;11.68;5.50;;;22.80;67.90;;;;;;5038687;28;20052;-52
2022/11/03 12:52:04;;;;;;;14.77;5.45;;;23.00;68.60;;;;;;5027692;28;20044;-55
2022/11/03 12:54:30;;;;;;;;;;;23.10;70.40;;;;;;5033819;28;20025;-52
2022/11/03 12:56:56;;;;;;;8.73;4.70;;;23.30;67.70;;;;;;5024514;28;20373;-53
2022/11/03 12:59:21;;;;;;;11.07;5.35;;;23.40;67.70;;;;;;5030373;28;20037;-51
2022/11/03 13:01:47;;;;;;;9.73;5.63;;;23.10;68.00;;;;;;5028332;28;20094;-56
2022/11/03 13:04:13;;;;;;;9.50;4.88;;;22.90;68.30;;;;;;5025535;28;20055;-52
2022/11/03 13:06:39;;;;;;;9.68;5.05;;;23.10;69.40;;;;;;5019698;28;20937;-54
2022/11/03 13:09:04;;;;;;;10.90;5.30;;;22.70;68.90;;;;;;5020012;28;20060;-51
2022/11/03 13:14:14;;;;;;;9.48;5.65;;;21.70;71.50;;;;;;5024467;28;20124;-52
2022/11/03 13:16:40;;;;;;;12.13;5.93;;;22.10;70.40;;;;;;5027013;28;20538;-51
2022/11/03 13:19:08;;;;;;;15.40;6.20;;;22.00;70.80;;;;;;5023651;28;20115;-50